Time;durP1;ratioP1;P1;durP2;ratioP2;P2;SDS_P1;SDS_P2;PMS_P1;PMS_P2;Temp;Humidity;BMP_temperature;BMP_pressure;BME280_temperature;BME280_humidity;BME280_pressure;Samples;Min_cycle;Max_cycle;Signal;HPM_P1;HPM_P2
2021/09/12 00:00:41;;;;;;;0.10;0.10;;;15.00;99.90;;;;;;5020415;28;20044;-77
2021/09/12 00:03:07;;;;;;;0.10;0.10;;;15.00;99.90;;;;;;5037665;28;20026;-77
2021/09/12 00:05:33;;;;;;;0.10;0.10;;;15.00;99.90;;;;;;5003376;28;20029;-77
2021/09/12 00:07:59;;;;;;;0.10;0.10;;;14.90;99.90;;;;;;5018988;28;20025;-77
2021/09/12 00:10:26;;;;;;;0.10;0.10;;;15.00;99.90;;;;;;5003440;28;20394;-77
2021/09/12 00:12:52;;;;;;;0.10;0.10;;;15.00;99.90;;;;;;5037145;28;20021;-77
2021/09/12 00:15:18;;;;;;;0.10;0.10;;;15.00;99.90;;;;;;5019311;28;20025;-77
2021/09/12 00:17:43;;;;;;;0.10;0.10;;;14.90;99.90;;;;;;5018766;28;20030;-77
2021/09/12 00:20:10;;;;;;;0.10;0.10;;;14.90;99.90;;;;;;5036688;28;20387;-77
2021/09/12 00:22:36;;;;;;;0.10;0.10;;;14.90;99.90;;;;;;5018825;28;20586;-77
2021/09/12 00:25:03;;;;;;;0.20;0.20;;;14.80;99.90;;;;;;5018518;28;20113;-77
2021/09/12 00:27:28;;;;;;;0.08;0.08;;;14.80;99.90;;;;;;5035730;28;20030;-77
2021/09/12 00:29:56;;;;;;;0.10;0.10;;;14.70;99.90;;;;;;5018610;28;20030;-77
2021/09/12 00:32:22;;;;;;;0.10;0.10;;;14.70;99.90;;;;;;5002130;28;20026;-77
2021/09/12 00:34:48;;;;;;;0.10;0.10;;;14.70;99.90;;;;;;5018721;28;20072;-77
2021/09/12 00:37:14;;;;;;;0.10;0.10;;;14.80;99.90;;;;;;5036215;28;20025;-76
2021/09/12 00:39:39;;;;;;;0.10;0.10;;;14.80;99.90;;;;;;5035954;28;20018;-77
2021/09/12 00:42:05;;;;;;;0.10;0.10;;;14.70;99.90;;;;;;5001797;28;20025;-76
2021/09/12 00:44:31;;;;;;;0.10;0.10;;;14.70;99.90;;;;;;5017674;28;20083;-77
2021/09/12 00:47:08;;;;;;;0.10;0.10;;;14.70;99.90;;;;;;5022130;28;20021;-77
2021/09/12 00:49:33;;;;;;;0.10;0.10;;;14.70;99.90;;;;;;5022831;28;20478;-77
2021/09/12 00:52:01;;;;;;;0.10;0.10;;;14.80;99.90;;;;;;5041783;28;20021;-77
2021/09/12 00:54:29;;;;;;;0.10;0.10;;;14.70;99.90;;;;;;5038915;28;20041;-77
2021/09/12 00:56:55;;;;;;;0.10;0.10;;;14.60;99.90;;;;;;5005962;28;20018;-77
2021/09/12 00:59:22;;;;;;;0.10;0.10;;;14.60;99.90;;;;;;5024908;28;20048;-77
2021/09/12 01:01:48;;;;;;;0.10;0.10;;;14.60;99.90;;;;;;5007474;28;20032;-77
2021/09/12 01:04:14;;;;;;;0.10;0.10;;;14.60;99.90;;;;;;5007549;28;20418;-77
2021/09/12 01:06:39;;;;;;;0.10;0.10;;;14.60;99.90;;;;;;5028571;28;20025;-77
2021/09/12 01:09:06;;;;;;;0.10;0.10;;;14.60;99.90;;;;;;5027987;28;20041;-77
2021/09/12 01:11:32;;;;;;;0.10;0.10;;;14.70;99.90;;;;;;5027620;28;20391;-78
2021/09/12 01:13:57;;;;;;;0.10;0.10;;;14.70;99.90;;;;;;5028254;28;20482;-78
2021/09/12 01:16:23;;;;;;;0.10;0.10;;;14.80;99.90;;;;;;5010838;28;20041;-77
2021/09/12 01:18:49;;;;;;;0.10;0.10;;;14.80;99.90;;;;;;5026362;28;20108;-77
2021/09/12 01:21:21;;;;;;;0.10;0.10;;;14.70;99.90;;;;;;5043338;28;20021;-78
2021/09/12 01:23:48;;;;;;;0.10;0.10;;;14.80;99.90;;;;;;5042169;28;20029;-77
2021/09/12 01:26:20;;;;;;;0.10;0.10;;;14.70;99.90;;;;;;5024206;28;20048;-77
2021/09/12 01:28:46;;;;;;;0.20;0.20;;;14.60;99.90;;;;;;5023116;28;20609;-77
2021/09/12 01:31:25;;;;;;;0.10;0.10;;;14.60;99.90;;;;;;5007364;28;20028;-77
2021/09/12 01:33:51;;;;;;;0.10;0.10;;;14.60;99.90;;;;;;5040086;28;20044;-77
2021/09/12 01:36:17;;;;;;;2.75;0.88;;;14.60;99.90;;;;;;5040386;28;20029;-77
2021/09/12 01:38:43;;;;;;;0.10;0.10;;;14.40;99.90;;;;;;5021711;28;20032;-77
2021/09/12 01:41:09;;;;;;;0.20;0.20;;;14.30;99.90;;;;;;5021980;28;20032;-76
2021/09/12 01:43:35;;;;;;;0.10;0.10;;;14.30;99.90;;;;;;5040618;28;20308;-77
2021/09/12 01:46:00;;;;;;;0.10;0.10;;;14.20;99.90;;;;;;5039498;28;20025;-77
2021/09/12 01:48:26;;;;;;;0.10;0.10;;;14.30;99.90;;;;;;5021394;28;20057;-77
2021/09/12 01:50:52;;;;;;;0.20;0.20;;;14.30;99.90;;;;;;5021423;28;20025;-77
2021/09/12 01:53:17;;;;;;;0.10;0.10;;;14.30;99.90;;;;;;5042346;28;20521;-77
2021/09/12 01:55:43;;;;;;;0.10;0.10;;;14.30;99.90;;;;;;5011869;28;20513;-77
2021/09/12 01:58:09;;;;;;;0.10;0.10;;;14.30;99.90;;;;;;5027582;28;20048;-77
2021/09/12 02:00:34;;;;;;;0.10;0.10;;;14.40;99.90;;;;;;5025482;28;20029;-77
2021/09/12 02:03:00;;;;;;;0.10;0.10;;;14.40;99.90;;;;;;5026440;28;20068;-77
2021/09/12 02:05:26;;;;;;;0.10;0.10;;;14.40;99.90;;;;;;5024152;28;20116;-77
2021/09/12 02:07:52;;;;;;;0.10;0.10;;;14.40;99.90;;;;;;5041623;28;20036;-77
2021/09/12 02:10:17;;;;;;;0.10;0.10;;;14.40;99.90;;;;;;5007923;28;20163;-77
2021/09/12 02:12:43;;;;;;;0.10;0.10;;;14.40;99.90;;;;;;5024241;28;20355;-77
2021/09/12 02:15:09;;;;;;;0.10;0.10;;;14.40;99.90;;;;;;5022946;28;20100;-77
2021/09/12 02:17:36;;;;;;;0.10;0.10;;;14.30;99.90;;;;;;5022058;28;20068;-77
2021/09/12 02:20:02;;;;;;;0.10;0.10;;;14.20;99.90;;;;;;5040114;28;20033;-77
2021/09/12 02:22:27;;;;;;;0.10;0.10;;;14.30;99.90;;;;;;5040074;28;20542;-77
2021/09/12 02:24:53;;;;;;;0.10;0.10;;;14.40;99.90;;;;;;5021165;28;20061;-77
2021/09/12 02:27:19;;;;;;;0.10;0.10;;;14.30;99.90;;;;;;5021611;28;20021;-77
2021/09/12 02:29:44;;;;;;;0.10;0.10;;;14.30;99.90;;;;;;5038902;28;20022;-77
2021/09/12 02:32:10;;;;;;;0.10;0.10;;;14.30;99.90;;;;;;5020993;28;20490;-77
2021/09/12 02:34:36;;;;;;;0.10;0.10;;;14.30;99.90;;;;;;5020418;28;20029;-77
2021/09/12 02:37:01;;;;;;;0.10;0.10;;;14.20;99.90;;;;;;5037707;28;20494;-77
2021/09/12 02:39:27;;;;;;;0.10;0.10;;;14.20;99.90;;;;;;5003464;28;20026;-77
2021/09/12 02:41:53;;;;;;;0.20;0.20;;;14.20;99.90;;;;;;5037370;28;20124;-77
2021/09/12 02:44:18;;;;;;;0.20;0.20;;;14.20;99.90;;;;;;5018633;28;20120;-77
2021/09/12 02:46:44;;;;;;;0.10;0.10;;;14.30;99.90;;;;;;5036509;28;20022;-77
2021/09/12 02:49:10;;;;;;;0.10;0.10;;;14.30;99.90;;;;;;5018766;28;20033;-77
2021/09/12 02:51:35;;;;;;;0.10;0.10;;;14.30;99.90;;;;;;5036371;28;20025;-77
2021/09/12 02:54:01;;;;;;;0.10;0.10;;;14.20;99.90;;;;;;5036162;28;20030;-77
2021/09/12 02:56:27;;;;;;;0.10;0.10;;;14.20;99.90;;;;;;5018252;28;20507;-77
2021/09/12 02:58:52;;;;;;;0.10;0.10;;;14.20;99.90;;;;;;5017536;28;20029;-77
2021/09/12 03:01:18;;;;;;;0.05;0.05;;;14.20;99.90;;;;;;5017938;28;20029;-77
2021/09/12 03:03:43;;;;;;;0.10;0.10;;;14.20;99.90;;;;;;5017423;28;20017;-76
2021/09/12 03:06:09;;;;;;;0.10;0.10;;;14.20;99.90;;;;;;5000317;28;20029;-76
2021/09/12 03:08:35;;;;;;;0.10;0.10;;;14.20;99.90;;;;;;5017104;28;20022;-76
2021/09/12 03:11:00;;;;;;;0.10;0.10;;;14.30;99.90;;;;;;5017162;28;20025;-77
2021/09/12 03:13:26;;;;;;;0.10;0.10;;;14.30;99.90;;;;;;5034936;28;20021;-77
2021/09/12 03:15:52;;;;;;;0.08;0.08;;;14.20;99.90;;;;;;5016427;28;20460;-77
2021/09/12 03:18:17;;;;;;;0.10;0.10;;;14.20;99.90;;;;;;4999806;28;20029;-76
2021/09/12 03:20:43;;;;;;;0.10;0.10;;;14.20;99.90;;;;;;5034954;28;20052;-76
2021/09/12 03:23:09;;;;;;;0.10;0.10;;;14.20;99.90;;;;;;5016592;28;20097;-77
2021/09/12 03:25:34;;;;;;;0.10;0.10;;;14.30;99.90;;;;;;5000192;28;20434;-77
2021/09/12 03:28:00;;;;;;;0.10;0.10;;;14.30;99.90;;;;;;5033991;28;20521;-77
2021/09/12 03:30:26;;;;;;;0.10;0.10;;;14.20;99.90;;;;;;5033655;28;20057;-77
2021/09/12 03:32:51;;;;;;;0.10;0.10;;;14.20;99.90;;;;;;5016084;28;20040;-77
2021/09/12 03:35:17;;;;;;;0.10;0.10;;;14.20;99.90;;;;;;5015564;28;20409;-77
2021/09/12 03:37:43;;;;;;;0.10;0.10;;;14.20;99.90;;;;;;5015838;28;20576;-77
2021/09/12 03:40:09;;;;;;;0.32;0.32;;;14.20;99.90;;;;;;5033655;28;20105;-77
2021/09/12 03:42:35;;;;;;;0.00;0.00;;;14.20;99.90;;;;;;5015644;28;20104;-77
2021/09/12 03:45:01;;;;;;;0.10;0.10;;;14.20;99.90;;;;;;5015153;28;20072;-77
2021/09/12 03:47:26;;;;;;;0.10;0.10;;;14.30;99.90;;;;;;4998733;28;20546;-76
2021/09/12 03:49:52;;;;;;;0.10;0.10;;;14.30;99.90;;;;;;5015771;28;20455;-77
2021/09/12 03:52:18;;;;;;;0.10;0.10;;;14.30;99.90;;;;;;5014946;28;20034;-77
2021/09/12 03:54:43;;;;;;;0.10;0.10;;;14.30;99.90;;;;;;5032969;28;20033;-77
2021/09/12 03:57:09;;;;;;;0.08;0.08;;;14.30;99.90;;;;;;4999023;28;20104;-76
2021/09/12 03:59:35;;;;;;;0.10;0.10;;;14.30;99.90;;;;;;5038739;28;20031;-77
2021/09/12 04:02:00;;;;;;;0.10;0.10;;;14.30;99.90;;;;;;5042241;28;20022;-77
2021/09/12 04:04:26;;;;;;;0.10;0.10;;;14.30;99.90;;;;;;5023253;28;20029;-77
2021/09/12 04:06:52;;;;;;;0.10;0.10;;;14.30;99.90;;;;;;5022355;28;20025;-77
2021/09/12 04:09:17;;;;;;;0.10;0.10;;;14.30;99.90;;;;;;5039863;28;20077;-77
2021/09/12 04:11:43;;;;;;;0.10;0.10;;;14.40;99.90;;;;;;5039674;28;20064;-77
2021/09/12 04:14:09;;;;;;;0.10;0.10;;;14.40;99.90;;;;;;5021650;28;20026;-77
2021/09/12 04:16:34;;;;;;;0.10;0.10;;;14.40;99.90;;;;;;5021326;28;20060;-77
2021/09/12 04:19:00;;;;;;;0.10;0.10;;;14.40;99.90;;;;;;5064237;23;20687;-70
2021/09/12 04:21:26;;;;;;;0.10;0.10;;;14.40;99.90;;;;;;5051533;28;20499;-70
2021/09/12 04:23:51;;;;;;;0.10;0.10;;;14.30;99.90;;;;;;5051641;28;20045;-70
2021/09/12 04:26:17;;;;;;;0.10;0.10;;;14.30;99.90;;;;;;5033670;28;20048;-71
2021/09/12 04:28:43;;;;;;;0.10;0.10;;;14.20;99.90;;;;;;5035276;28;20068;-70
2021/09/12 04:31:10;;;;;;;0.10;0.10;;;14.20;99.90;;;;;;5037555;28;20071;-70
2021/09/12 04:33:37;;;;;;;0.13;0.13;;;14.20;99.90;;;;;;5055112;28;20066;-70
2021/09/12 04:36:03;;;;;;;0.10;0.10;;;14.30;99.90;;;;;;5037081;28;20087;-70
2021/09/12 04:38:29;;;;;;;0.10;0.10;;;14.30;99.90;;;;;;5054975;28;20049;-70
2021/09/12 04:40:55;;;;;;;0.10;0.10;;;14.30;99.90;;;;;;5055023;28;20033;-70
2021/09/12 04:43:20;;;;;;;0.10;0.10;;;14.30;99.90;;;;;;5036936;28;20106;-70
2021/09/12 04:45:46;;;;;;;0.10;0.10;;;14.30;99.90;;;;;;5054837;28;20037;-70
2021/09/12 04:48:12;;;;;;;0.10;0.10;;;14.30;99.90;;;;;;5054754;28;20021;-70
2021/09/12 04:50:39;;;;;;;0.10;0.10;;;14.30;99.90;;;;;;5054876;28;20365;-70
2021/09/12 04:53:05;;;;;;;0.10;0.10;;;14.30;99.90;;;;;;5054711;28;20200;-71
2021/09/12 04:55:30;;;;;;;0.10;0.10;;;14.30;99.90;;;;;;5054756;28;20083;-70
2021/09/12 04:57:56;;;;;;;0.10;0.10;;;14.30;99.90;;;;;;5020126;28;20040;-70
2021/09/12 05:00:22;;;;;;;0.10;0.10;;;14.30;99.90;;;;;;5020218;28;20074;-70
2021/09/12 05:02:48;;;;;;;0.10;0.10;;;14.40;99.90;;;;;;5054509;28;20384;-70
2021/09/12 05:05:14;;;;;;;0.10;0.10;;;14.30;99.90;;;;;;5054597;28;20457;-70
2021/09/12 05:07:39;;;;;;;0.10;0.10;;;14.40;99.90;;;;;;5020028;28;20021;-70
2021/09/12 05:10:06;;;;;;;0.10;0.10;;;14.40;99.90;;;;;;5054498;28;20408;-70
2021/09/12 05:12:32;;;;;;;0.10;0.10;;;14.40;99.90;;;;;;5054378;28;20103;-70
2021/09/12 05:14:57;;;;;;;0.10;0.10;;;14.40;99.90;;;;;;5036335;28;20025;-70
2021/09/12 05:17:23;;;;;;;0.10;0.10;;;14.50;99.90;;;;;;5054295;28;20104;-70
2021/09/12 05:19:49;;;;;;;0.10;0.10;;;14.50;99.90;;;;;;5054134;28;20028;-70
2021/09/12 05:22:15;;;;;;;0.10;0.10;;;14.60;99.90;;;;;;5054255;28;20108;-70
2021/09/12 05:24:40;;;;;;;0.10;0.10;;;14.70;99.90;;;;;;5054066;28;20051;-70
2021/09/12 05:27:06;;;;;;;0.10;0.10;;;14.60;99.90;;;;;;5054024;28;20052;-69
2021/09/12 05:29:32;;;;;;;0.10;0.10;;;14.70;99.90;;;;;;5054062;28;20412;-70
2021/09/12 05:31:58;;;;;;;0.20;0.20;;;14.80;99.90;;;;;;5054034;28;20029;-71
2021/09/12 05:34:23;;;;;;;0.20;0.20;;;14.80;99.90;;;;;;5053876;28;20036;-70
2021/09/12 05:36:49;;;;;;;0.10;0.10;;;14.90;99.90;;;;;;5053892;28;20392;-70
2021/09/12 05:39:15;;;;;;;0.10;0.10;;;14.90;99.90;;;;;;5053547;28;20029;-70
2021/09/12 05:41:41;;;;;;;0.10;0.10;;;15.00;99.90;;;;;;5053534;28;20104;-70
2021/09/12 05:44:07;;;;;;;0.10;0.10;;;15.10;99.90;;;;;;5053690;28;20518;-70
2021/09/12 05:46:35;;;;;;;0.10;0.10;;;15.20;99.90;;;;;;5053759;28;20021;-71
2021/09/12 05:49:01;;;;;;;0.10;0.10;;;15.20;99.90;;;;;;5053618;28;20021;-71
2021/09/12 05:51:27;;;;;;;0.10;0.10;;;15.30;99.90;;;;;;5053589;28;20445;-71
2021/09/12 05:53:53;;;;;;;0.10;0.10;;;15.50;99.90;;;;;;5053445;28;20057;-71
2021/09/12 05:56:18;;;;;;;0.15;0.15;;;15.60;99.90;;;;;;5053399;28;20025;-71
2021/09/12 05:58:44;;;;;;;0.10;0.10;;;15.70;99.90;;;;;;5053373;28;20434;-71
2021/09/12 06:01:11;;;;;;;0.10;0.10;;;15.80;99.90;;;;;;5053334;28;20033;-71
2021/09/12 06:03:37;;;;;;;0.15;0.15;;;15.90;99.90;;;;;;5058687;28;20017;-71
2021/09/12 06:06:03;;;;;;;0.10;0.10;;;16.00;99.90;;;;;;5073088;28;20024;-71
2021/09/12 06:08:28;;;;;;;0.08;0.08;;;16.00;99.90;;;;;;5055414;28;20025;-71
2021/09/12 06:10:54;;;;;;;0.10;0.10;;;16.10;99.90;;;;;;5068819;28;20017;-70
2021/09/12 06:13:20;;;;;;;0.10;0.10;;;16.20;99.90;;;;;;5053043;28;20102;-71
2021/09/12 06:15:46;;;;;;;0.10;0.10;;;16.20;99.90;;;;;;5052730;28;20017;-70
2021/09/12 06:18:12;;;;;;;0.10;0.10;;;16.30;99.90;;;;;;5053054;28;20025;-70
2021/09/12 06:20:38;;;;;;;0.10;0.10;;;16.50;99.90;;;;;;5034966;28;20025;-70
2021/09/12 06:23:03;;;;;;;0.10;0.10;;;16.70;99.90;;;;;;5053086;28;20021;-70
2021/09/12 06:25:29;;;;;;;0.10;0.10;;;16.80;99.90;;;;;;5052776;28;20033;-71
2021/09/12 06:27:56;;;;;;;0.10;0.10;;;16.90;99.90;;;;;;5052637;28;20029;-71
2021/09/12 06:30:21;;;;;;;0.10;0.10;;;17.00;99.90;;;;;;5052834;28;20036;-71
2021/09/12 06:32:47;;;;;;;0.10;0.10;;;17.10;99.90;;;;;;5052828;28;20025;-71
2021/09/12 06:35:14;;;;;;;0.10;0.10;;;17.30;99.90;;;;;;5051678;28;20025;-70
2021/09/12 06:37:39;;;;;;;0.10;0.10;;;17.40;99.90;;;;;;5056882;28;20101;-71
2021/09/12 06:40:06;;;;;;;0.10;0.10;;;17.50;99.90;;;;;;5052244;28;20104;-71
2021/09/12 06:42:32;;;;;;;0.15;0.15;;;17.70;99.90;;;;;;5052268;28;20304;-71
2021/09/12 06:44:58;;;;;;;0.10;0.10;;;17.90;99.90;;;;;;5052443;28;20074;-70
2021/09/12 06:47:23;;;;;;;0.10;0.10;;;18.20;99.90;;;;;;5052596;28;20020;-71
2021/09/12 06:49:49;;;;;;;0.10;0.10;;;18.40;99.90;;;;;;5052420;28;20086;-71
2021/09/12 06:52:15;;;;;;;0.10;0.10;;;18.70;99.90;;;;;;5033826;28;20051;-70
2021/09/12 06:54:41;;;;;;;0.10;0.10;;;19.00;99.90;;;;;;5052226;28;20025;-71
2021/09/12 06:57:06;;;;;;;0.10;0.10;;;19.30;99.90;;;;;;5018142;28;20533;-71
2021/09/12 06:59:32;;;;;;;0.10;0.10;;;19.60;99.90;;;;;;5052338;28;20420;-71
2021/09/12 07:01:58;;;;;;;0.00;0.00;;;19.90;99.90;;;;;;5052391;28;20024;-71
2021/09/12 07:04:24;;;;;;;0.10;0.10;;;20.30;99.90;;;;;;5052278;28;20025;-71
2021/09/12 07:06:49;;;;;;;0.00;0.00;;;20.40;99.90;;;;;;5034289;28;20033;-71
2021/09/12 07:09:15;;;;;;;0.00;0.00;;;20.60;99.90;;;;;;5052199;28;20037;-71
2021/09/12 07:11:41;;;;;;;0.00;0.00;;;20.70;99.90;;;;;;5052028;28;20395;-74
2021/09/12 07:14:07;;;;;;;0.00;0.00;;;20.90;99.90;;;;;;5052085;28;20029;-74
2021/09/12 07:16:33;;;;;;;0.00;0.00;;;20.90;99.90;;;;;;5051984;28;20508;-74
2021/09/12 07:18:59;;;;;;;0.10;0.10;;;20.90;99.90;;;;;;5034202;28;20036;-74
2021/09/12 07:21:25;;;;;;;0.00;0.00;;;21.10;99.90;;;;;;5052156;28;20029;-74
2021/09/12 07:23:50;;;;;;;0.10;0.10;;;21.10;99.90;;;;;;5052124;28;20025;-74
2021/09/12 07:26:16;;;;;;;0.00;0.00;;;21.10;99.90;;;;;;5051750;28;20468;-75
2021/09/12 07:28:43;;;;;;;0.05;0.05;;;21.30;99.90;;;;;;5052077;28;20112;-74
2021/09/12 07:31:09;;;;;;;0.00;0.00;;;21.50;99.90;;;;;;5051909;28;20094;-74
2021/09/12 07:33:35;;;;;;;0.00;0.00;;;21.80;99.90;;;;;;5034122;28;20036;-74
2021/09/12 07:36:00;;;;;;;0.00;0.00;;;22.00;99.90;;;;;;5051632;28;20031;-74
2021/09/12 07:38:26;;;;;;;0.03;0.03;;;22.10;99.10;;;;;;5034056;28;20025;-74
2021/09/12 07:40:52;;;;;;;0.00;0.00;;;22.40;99.90;;;;;;5052096;28;20025;-74
2021/09/12 07:43:18;;;;;;;0.10;0.10;;;22.70;97.00;;;;;;5034226;28;20092;-74
2021/09/12 07:45:44;;;;;;;0.00;0.00;;;23.00;94.50;;;;;;5033697;28;20024;-75
2021/09/12 07:48:09;;;;;;;0.00;0.00;;;23.90;93.90;;;;;;5051774;28;20025;-76
2021/09/12 07:50:35;;;;;;;0.00;0.00;;;25.30;90.50;;;;;;5051700;28;20053;-74
2021/09/12 07:53:02;;;;;;;0.03;0.03;;;27.50;90.90;;;;;;5051696;28;20025;-74
2021/09/12 07:55:27;;;;;;;0.00;0.00;;;27.80;70.50;;;;;;5051282;28;20033;-75
2021/09/12 07:57:53;;;;;;;0.10;0.10;;;25.50;73.20;;;;;;5033760;28;20112;-70
2021/09/12 08:00:19;;;;;;;0.10;0.10;;;23.60;81.00;;;;;;5051626;28;20104;-73
2021/09/12 08:02:45;;;;;;;0.00;0.00;;;22.40;87.50;;;;;;5052058;28;20108;-73
2021/09/12 08:05:11;;;;;;;0.08;0.08;;;21.50;91.90;;;;;;5055324;28;20440;-73
2021/09/12 08:07:36;;;;;;;1.20;0.70;;;20.90;95.30;;;;;;5038204;28;20025;-77
2021/09/12 08:10:03;;;;;;;0.10;0.10;;;20.40;98.30;;;;;;5022545;28;20021;-78
2021/09/12 08:12:29;;;;;;;0.10;0.10;;;20.00;99.90;;;;;;5056824;28;20064;-78
2021/09/12 08:14:55;;;;;;;0.05;0.05;;;19.70;99.90;;;;;;5038676;28;20079;-76
2021/09/12 08:17:21;;;;;;;0.10;0.10;;;19.50;99.90;;;;;;5039282;28;20028;-77
2021/09/12 08:19:46;;;;;;;0.17;0.17;;;19.40;99.90;;;;;;5038650;28;20052;-78
2021/09/12 08:22:12;;;;;;;0.10;0.10;;;19.60;99.90;;;;;;5056559;28;20362;-77
2021/09/12 08:24:38;;;;;;;0.10;0.10;;;19.80;99.90;;;;;;5056403;28;20025;-78
2021/09/12 08:27:03;;;;;;;0.28;0.28;;;19.80;99.90;;;;;;5038823;28;20029;-78
2021/09/12 08:29:29;;;;;;;0.10;0.10;;;19.90;99.90;;;;;;5039393;28;20025;-79
2021/09/12 08:31:55;;;;;;;0.43;0.43;;;20.00;99.90;;;;;;5039259;28;20025;-79
2021/09/12 08:34:23;;;;;;;0.75;0.75;;;20.20;99.90;;;;;;5038914;28;20025;-78
2021/09/12 08:36:50;;;;;;;0.03;0.03;;;20.50;99.90;;;;;;5039261;28;20060;-78
2021/09/12 08:39:15;;;;;;;0.10;0.10;;;20.80;99.90;;;;;;5056675;28;20025;-79
2021/09/12 08:41:41;;;;;;;0.10;0.10;;;21.10;99.90;;;;;;5038584;28;20362;-78
2021/09/12 08:44:08;;;;;;;0.00;0.00;;;21.30;99.90;;;;;;5056680;28;20472;-78
2021/09/12 08:46:34;;;;;;;0.10;0.10;;;21.40;99.90;;;;;;5056246;28;20373;-78
2021/09/12 08:49:00;;;;;;;0.10;0.10;;;21.50;99.90;;;;;;5057437;28;20024;-78
2021/09/12 08:51:25;;;;;;;0.10;0.10;;;21.60;99.90;;;;;;5022201;28;20388;-78
2021/09/12 08:53:52;;;;;;;0.00;0.00;;;21.40;99.90;;;;;;5038622;28;20013;-78
2021/09/12 08:56:17;;;;;;;1.42;1.30;;;21.30;99.90;;;;;;5056004;28;20025;-78
2021/09/12 08:58:43;;;;;;;0.20;0.20;;;21.30;99.90;;;;;;5038417;28;20027;-77
2021/09/12 09:01:09;;;;;;;0.35;0.35;;;21.30;99.90;;;;;;5054583;28;20473;-75
2021/09/12 09:03:35;;;;;;;0.52;0.52;;;21.60;99.90;;;;;;5054593;28;20453;-76
2021/09/12 09:06:21;;;;;;;0.00;0.00;;;22.00;99.90;;;;;;5054320;28;20032;-76
2021/09/12 09:08:59;;;;;;;0.10;0.10;;;22.20;99.90;;;;;;5054270;28;20476;-76
2021/09/12 09:11:39;;;;;;;0.15;0.15;;;22.40;99.90;;;;;;5036429;28;20037;-76
2021/09/12 09:14:15;;;;;;;0.40;0.40;;;22.90;98.70;;;;;;5053870;28;20036;-76
2021/09/12 09:16:41;;;;;;;0.10;0.10;;;23.30;95.70;;;;;;5053501;28;20045;-76
2021/09/12 09:19:08;;;;;;;0.00;0.00;;;23.70;94.70;;;;;;5054395;28;20052;-74
2021/09/12 09:21:37;;;;;;;0.10;0.10;;;23.90;91.70;;;;;;5054500;28;20025;-76
2021/09/12 09:24:22;;;;;;;0.10;0.10;;;23.90;91.60;;;;;;5054352;28;20032;-76
2021/09/12 09:26:53;;;;;;;0.75;0.30;;;23.90;90.10;;;;;;5054065;28;20111;-75
2021/09/12 09:29:25;;;;;;;0.10;0.10;;;23.70;88.40;;;;;;5054209;28;20188;-76
2021/09/12 09:32:20;;;;;;;0.15;0.03;;;24.00;85.80;;;;;;5054320;28;20035;-76
2021/09/12 09:34:46;;;;;;;0.80;0.80;;;23.90;84.80;;;;;;5019105;28;20123;-75
2021/09/12 09:37:20;;;;;;;0.17;0.17;;;24.20;83.10;;;;;;5053930;28;20049;-76
2021/09/12 09:39:48;;;;;;;0.00;0.00;;;24.60;84.80;;;;;;5053778;28;20032;-76
2021/09/12 09:42:36;;;;;;;1.45;1.02;;;25.30;82.40;;;;;;5053729;28;20027;-72
2021/09/12 09:45:16;;;;;;;0.00;0.00;;;25.50;82.20;;;;;;5053584;28;20029;-73
2021/09/12 09:47:47;;;;;;;0.55;0.40;;;26.00;78.10;;;;;;5053479;28;20025;-73
2021/09/12 09:50:22;;;;;;;2.60;1.23;;;26.30;75.00;;;;;;5053563;28;20025;-71
2021/09/12 09:52:54;;;;;;;0.00;0.00;;;25.60;75.40;;;;;;5053487;28;20423;-72
2021/09/12 09:55:22;;;;;;;0.05;0.05;;;25.70;76.20;;;;;;5053237;28;20053;-72
2021/09/12 09:57:50;;;;;;;0.10;0.10;;;25.80;73.80;;;;;;5053362;28;20484;-71
2021/09/12 10:00:16;;;;;;;0.10;0.10;;;25.30;73.70;;;;;;5053429;28;20027;-72
2021/09/12 10:02:43;;;;;;;0.20;0.20;;;24.50;78.20;;;;;;5053307;28;20059;-71
2021/09/12 10:05:11;;;;;;;0.20;0.20;;;24.20;80.10;;;;;;5053267;28;20029;-72
2021/09/12 10:07:38;;;;;;;0.20;0.20;;;24.90;78.40;;;;;;5053160;28;20033;-72
2021/09/12 10:10:07;;;;;;;0.10;0.10;;;24.90;76.50;;;;;;5053293;28;20396;-73
2021/09/12 10:12:46;;;;;;;0.05;0.05;;;24.50;80.00;;;;;;5053312;28;20052;-72
2021/09/12 10:15:17;;;;;;;0.10;0.10;;;24.30;82.30;;;;;;5052910;28;20033;-73
2021/09/12 10:17:45;;;;;;;0.20;0.20;;;24.70;82.80;;;;;;5052871;28;20108;-72
2021/09/12 10:20:15;;;;;;;0.17;0.17;;;25.80;78.00;;;;;;5066967;22;20304;-71
2021/09/12 10:22:56;;;;;;;0.55;0.38;;;25.50;75.40;;;;;;5035341;28;20049;-71
2021/09/12 10:25:29;;;;;;;0.00;0.00;;;25.70;74.50;;;;;;5052627;28;20075;-71
2021/09/12 10:28:03;;;;;;;0.00;0.00;;;25.00;78.90;;;;;;5018477;28;20029;-71
2021/09/12 10:30:40;;;;;;;0.10;0.10;;;25.90;77.70;;;;;;5052887;28;20087;-72
2021/09/12 10:33:05;;;;;;;1.00;0.43;;;26.40;74.50;;;;;;5052696;28;20049;-72
2021/09/12 10:35:47;;;;;;;2.60;0.40;;;27.10;69.60;;;;;;5052377;28;20432;-72
2021/09/12 10:38:23;;;;;;;0.25;0.20;;;27.50;69.10;;;;;;5052428;28;20483;-72
2021/09/12 10:40:51;;;;;;;0.25;0.25;;;28.10;66.30;;;;;;5034681;28;20488;-72
2021/09/12 10:43:26;;;;;;;0.00;0.00;;;28.40;62.70;;;;;;5052397;28;20044;-74
2021/09/12 10:46:07;;;;;;;0.20;0.20;;;28.00;64.30;;;;;;5052381;28;20025;-75
2021/09/12 10:48:40;;;;;;;0.00;0.00;;;27.10;64.00;;;;;;5034496;28;20033;-72
2021/09/12 10:51:07;;;;;;;0.70;0.55;;;26.50;66.30;;;;;;5052506;28;20040;-72
2021/09/12 10:53:45;;;;;;;1.20;0.85;;;27.00;66.50;;;;;;5034640;28;20028;-72
2021/09/12 10:56:20;;;;;;;1.02;1.02;;;27.30;64.60;;;;;;5052280;28;20032;-72
2021/09/12 10:58:54;;;;;;;0.88;0.40;;;27.60;63.00;;;;;;5034503;28;20025;-72
2021/09/12 11:01:40;;;;;;;0.10;0.10;;;27.80;63.60;;;;;;5052578;28;20018;-72
2021/09/12 11:04:06;;;;;;;3.03;2.83;;;28.00;62.50;;;;;;5052253;28;20028;-72
2021/09/12 11:06:38;;;;;;;1.42;1.00;;;28.20;61.10;;;;;;5052195;28;20047;-72
2021/09/12 11:09:05;;;;;;;;;;;28.10;58.40;;;;;;5052672;28;20021;-72
2021/09/12 11:11:31;;;;;;;0.20;0.20;;;28.30;59.80;;;;;;5052336;28;19904;-72
2021/09/12 11:13:58;;;;;;;0.20;0.20;;;28.50;59.20;;;;;;5052276;28;20048;-72
2021/09/12 11:16:25;;;;;;;7.55;1.55;;;28.80;58.90;;;;;;5034174;28;20117;-72
2021/09/12 11:18:59;;;;;;;0.00;0.00;;;28.80;58.00;;;;;;5052129;28;20538;-72
2021/09/12 11:21:44;;;;;;;0.13;0.10;;;29.30;57.70;;;;;;5052109;28;20506;-72
2021/09/12 11:24:27;;;;;;;0.05;0.05;;;29.70;54.70;;;;;;5052089;28;20476;-72
2021/09/12 11:26:55;;;;;;;5.10;2.85;;;30.10;54.90;;;;;;5017852;28;20406;-72
2021/09/12 11:29:28;;;;;;;3.45;2.22;;;29.70;55.40;;;;;;5052070;28;20535;-72
2021/09/12 11:31:55;;;;;;;1.92;1.77;;;29.50;57.20;;;;;;5017918;28;20505;-72
2021/09/12 11:34:22;;;;;;;20.88;10.75;;;29.70;55.20;;;;;;5033890;28;20055;-73
2021/09/12 11:37:14;;;;;;;1.67;0.63;;;30.40;54.00;;;;;;5051972;28;20025;-72
2021/09/12 11:39:40;;;;;;;;;;;30.80;53.30;;;;;;5041405;28;20033;-72
2021/09/12 11:42:09;;;;;;;0.10;0.10;;;30.30;53.60;;;;;;5034178;28;19959;-71
2021/09/12 11:44:37;;;;;;;0.68;0.68;;;29.20;56.10;;;;;;5034099;28;20403;-71
2021/09/12 11:47:07;;;;;;;1.63;1.15;;;29.00;56.20;;;;;;5034000;28;20025;-71
2021/09/12 11:49:33;;;;;;;0.70;0.70;;;28.60;58.20;;;;;;5051761;28;20044;-71
2021/09/12 11:51:58;;;;;;;0.10;0.10;;;28.70;57.60;;;;;;5051591;28;20476;-72
2021/09/12 11:54:31;;;;;;;0.00;0.00;;;29.60;55.60;;;;;;5017303;28;20068;-71
2021/09/12 11:57:03;;;;;;;0.25;0.25;;;28.30;56.10;;;;;;5051680;28;20017;-71
2021/09/12 11:59:39;;;;;;;0.05;0.05;;;27.90;56.20;;;;;;5051619;28;20075;-71
2021/09/12 12:02:10;;;;;;;0.75;0.17;;;28.70;55.90;;;;;;5051544;28;20063;-71
2021/09/12 12:04:39;;;;;;;0.55;0.55;;;29.00;55.60;;;;;;5051581;28;20029;-72
2021/09/12 12:07:05;;;;;;;0.93;0.43;;;29.70;54.80;;;;;;5051546;28;20025;-71
2021/09/12 12:09:48;;;;;;;0.00;0.00;;;29.50;53.80;;;;;;5051662;28;20370;-66
2021/09/12 18:01:36;;;;;;;0.10;0.10;;;21.30;93.20;;;;;;5089508;27;20408;-75
2021/09/12 18:04:02;;;;;;;0.10;0.10;;;20.90;94.30;;;;;;5088391;28;20024;-75
2021/09/12 18:06:27;;;;;;;0.10;0.10;;;20.80;95.50;;;;;;5071454;28;20021;-76
2021/09/12 18:08:53;;;;;;;0.10;0.10;;;20.90;95.60;;;;;;5088190;28;20024;-76
2021/09/12 18:11:19;;;;;;;0.10;0.10;;;20.70;95.60;;;;;;5089344;28;20028;-76
2021/09/12 18:13:45;;;;;;;0.10;0.10;;;20.50;96.50;;;;;;5091891;28;20099;-77
2021/09/12 18:16:11;;;;;;;0.10;0.10;;;20.40;97.40;;;;;;5072481;28;20452;-76
2021/09/12 18:18:36;;;;;;;0.10;0.10;;;20.30;98.40;;;;;;5072735;28;20479;-77
2021/09/12 18:21:02;;;;;;;0.10;0.10;;;20.30;99.70;;;;;;5089665;28;20048;-77
2021/09/12 18:23:28;;;;;;;0.10;0.10;;;20.20;99.90;;;;;;5090904;28;20025;-78
2021/09/12 18:25:54;;;;;;;0.05;0.05;;;20.30;99.90;;;;;;5090791;28;20414;-78
2021/09/12 18:28:20;;;;;;;0.10;0.10;;;20.40;99.90;;;;;;5072289;28;20020;-78
2021/09/12 18:30:47;;;;;;;0.10;0.10;;;20.60;99.90;;;;;;5088981;28;20098;-76
2021/09/12 18:33:14;;;;;;;0.17;0.17;;;20.50;99.90;;;;;;5090765;28;20055;-76
2021/09/12 18:35:41;;;;;;;0.10;0.10;;;20.40;99.90;;;;;;5089198;28;20024;-77
2021/09/12 18:38:07;;;;;;;0.10;0.10;;;20.50;99.90;;;;;;5090817;28;20052;-77